NEODyS-2

Near Earth Objects - Dynamic Site
NEODyS ∴ Observatories ∴ Site 691 ∴ Obs & residuals
Contact »
691  ▹ 
OBSERVATIONS AND RESIDUALS

691-Steward Observatory, Kitt Peak-Spacewatch

Detections | Residuals | Detections & Residuals

[1-200] [201-400] [401-600] [601-800] [801-1000] [1001-1200] [1201-1400] [1401-1600] [1601-1800] [1801-2000] [2001-2200] [2201-2400] [2401-2600] [2601-2800] [2801-3000] [3001-3200] [3201-3400] [3401-3600] [3601-3800] [3801-4000] [4001-4200] [4201-4400] [4401-4600] [4601-4800] [4801-5000] [5001-5200] [5201-5400] [5401-5600] [5601-5800] [5801-6000] [6001-6200] [6201-6400] [6401-6600] [6601-6800] [6801-7000] [7001-7200] [7201-7400] [7401-7600] [7601-7800] [7801-8000] [8001-8200] [8201-8400] [8401-8600] [8601-8800] [8801-9000] [9001-9200] [9201-9400] [9401-9600] [9601-9800] [9801-10000] [10001-10200] [10201-10400] [10401-10600] [10601-10800] [10801-11000] [11001-11200] [11201-11400] [11401-11600] [11601-11800] [11801-12000] [12001-12200] [12201-12400] [12401-12600] [12601-12800] [12801-13000] [13001-13200] [13201-13400] [13401-13600] [13601-13800] [13801-14000] [14001-14200] [14201-14400] [14401-14600] [14601-14800] [14801-15000] [15001-15200] [15201-15400] [15401-15600] [15601-15800] [15801-16000] [16001-16200] [16201-16400] [16401-16600] [16601-16800] [16801-17000] [17001-17200] [17201-17400] [17401-17600] [17601-17800] [17801-18000] [18001-18200] [18201-18400] [18401-18600] [18601-18800] [18801-19000] [19001-19200] [19201-19400] [19401-19600] [19601-19800] [19801-20000] [20001-20200] [20201-20400] [20401-20600] [20601-20800] [20801-21000] [21001-21200] [21201-21400] [21401-21600] [21601-21800] [21801-22000] [22001-22200] [22201-22400] [22401-22600] [22601-22800] [22801-23000] [23001-23200] [23201-23400] [23401-23600] [23601-23800] [23801-24000] [24001-24200] [24201-24400] [24401-24600] [24601-24800] [24801-25000] [25001-25200] [25201-25400] [25401-25600] [25601-25800] [25801-26000] [26001-26200] [26201-26400] [26401-26600] [26601-26800] [26801-27000] [27001-27200] [27201-27400] [27401-27600] [27601-27800] [27801-28000] [28001-28200] [28201-28400] [28401-28600] [28601-28800] [28801-29000] [29001-29200] [29201-29400] [29401-29600] [29601-29800] [29801-30000] [30001-30200] [30201-30400] [30401-30600] [30601-30800] [30801-31000] [31001-31200] [31201-31400] [31401-31600] [31601-31800] [31801-32000] [32001-32200] [32201-32400] [32401-32600] [32601-32800] [32801-33000] [33001-33200] [33201-33400] [33401-33600] [33601-33800] [33801-34000] [34001-34200] [34201-34400] [34401-34600] [34601-34800] [34801-35000] [35001-35200] [35201-35400] [35401-35600] [35601-35800] [35801-36000] [36001-36200] [36201-36400] [36401-36600] [36601-36800] [36801-37000] [37001-37200] [37201-37400] [37401-37600] [37601-37800] [37801-38000] [38001-38200] [38201-38400] [38401-38600] [38601-38800] [38801-39000] [39001-39200] [39201-39400] [39401-39600] [39601-39800] [39801-40000] [40001-40200] [40201-40400] [40401-40600] [40601-40800] [40801-41000] [41001-41200] [41201-41400] [41401-41600] [41601-41800] [41801-42000] [42001-42200] [42201-42400] [42401-42600] [42601-42800] [42801-43000] [43001-43200] [43201-43400] [43401-43600] [43601-43800] [43801-44000] [44001-44200] [44201-44400] [44401-44600] [44601-44800] [44801-45000] [45001-45200] [45201-45400] [45401-45600] [45601-45800] [45801-46000] [46001-46200] [46201-46400] [46401-46600] [46601-46800] [46801-47000] [47001-47200] [47201-47400] [47401-47600] [47601-47800] [47801-48000] [48001-48200] [48201-48400] [48401-48600] [48601-48800] [48801-49000] [49001-49200] [49201-49400] [49401-49600] [49601-49800] [49801-50000] [50001-50200] [50201-50388]

Designation T Tech N Date Right Ascension Declination Apparent Magnitude Star Catalog Site code χ Used A Used M
yr-mo-day precision hr:min:sec precision rms F bias residual deg min sec precision rms F bias residual mag/col rms residual
2003YQ94 O C 2003-12-22.43432 1.000E-05 08:15:56.640 1.500E-01 0.500 F 0.188 -0.243 +15° 50' 44.80" 1.000E-01 0.500 F 0.324 -0.191 20.4 V 0.70 0.10 c 691 0.62 Yes Yes
2003YQ94 O C 2003-12-22.44800 1.000E-05 08:15:55.450 1.500E-01 0.500 F 0.188 -0.164 +15° 50' 44.10" 1.000E-01 0.500 F 0.324 -0.233 20.6 V 0.70 0.30 c 691 0.57 Yes Yes
2003YQ94 O C 2003-12-22.46225 1.000E-05 08:15:54.210 1.500E-01 0.500 F 0.188 -0.097 +15° 50' 43.60" 1.000E-01 0.500 F 0.324 -0.036 20.3 V 0.70 0.00 c 691 0.21 Yes Yes
2003YO1 O C 2003-12-29.08511 1.000E-05 03:18:13.720 1.500E-01 0.500 F -0.003 -0.290 +29° 47' 55.60" 1.000E-01 0.500 F 0.292 -0.151 20.5 V 0.70 0.39 c 691 0.66 Yes Yes
2003YO1 O C 2003-12-29.11402 1.000E-05 03:18:09.310 1.500E-01 0.500 F -0.003 -0.331 +29° 48' 02.60" 1.000E-01 0.500 F 0.292 -0.219 20.5 V 0.70 0.39 c 691 0.80 Yes Yes
2003YO1 O C 2003-12-29.14139 1.000E-05 03:18:05.160 1.500E-01 0.500 F -0.003 0.065 +29° 48' 09.10" 1.000E-01 0.500 F 0.292 -0.213 20.4 V 0.70 0.29 c 691 0.45 Yes Yes
1999JT3 O C 2003-12-29.16634 1.000E-05 04:50:21.730 1.500E-01 0.500 F -0.017 -0.285 +26° 37' 27.20" 1.000E-01 0.500 F 0.489 0.063 21.5 V 0.70 1.15 c 691 0.59 Yes Yes
1999JT3 O C 2003-12-29.19371 1.000E-05 04:50:19.950 1.500E-01 0.500 F -0.017 -0.161 +26° 37' 26.70" 1.000E-01 0.500 F 0.489 -0.188 20.7 V 0.70 0.34 c 691 0.50 Yes Yes
1999JT3 O C 2003-12-29.22220 1.000E-05 04:50:18.090 1.500E-01 0.500 F -0.017 -0.106 +26° 37' 26.00" 1.000E-01 0.500 F 0.489 -0.573 21.3 V 0.70 0.94 c 691 1.17 Yes Yes
2003WD158 O C 2003-12-29.27639 1.000E-05 04:32:34.390 1.500E-01 0.500 F 0.037 0.023 +18° 48' 02.10" 1.000E-01 0.500 F 0.153 -0.102 18.8 V 0.70 1.56 c 691 0.21 Yes Yes
2003WD158 O C 2003-12-29.31005 1.000E-05 04:32:27.090 1.500E-01 0.500 F 0.037 0.150 +18° 49' 00.90" 1.000E-01 0.500 F 0.153 -0.112 18.7 V 0.70 1.46 c 691 0.37 Yes Yes
2003WD158 O C 2003-12-29.35544 1.000E-05 04:32:17.270 1.500E-01 0.500 F 0.037 -0.031 +18° 50' 20.00" 1.000E-01 0.500 F 0.153 0.039 18.7 V 0.70 1.45 c 691 0.10 Yes Yes
2002AC2 O C 2003-12-29.37240 1.000E-05 07:22:40.520 1.500E-01 0.500 F 0.170 0.015 +24° 18' 40.20" 1.000E-01 0.500 F 0.325 -0.091 19.6 V 0.70 0.60 c 691 0.18 Yes Yes
2002AC2 O C 2003-12-29.39941 1.000E-05 07:22:36.600 1.500E-01 0.500 F 0.170 0.069 +24° 19' 28.30" 1.000E-01 0.500 F 0.325 0.077 19.2 V 0.70 0.20 c 691 0.21 Yes Yes
2002AC2 O C 2003-12-29.42635 1.000E-05 07:22:32.690 1.500E-01 0.500 F 0.170 0.081 +24° 20' 15.90" 1.000E-01 0.500 F 0.325 -0.054 18.9 V 0.70 -0.10 c 691 0.19 Yes Yes
1998EC3 O C 2003-12-29.48918 1.000E-05 08:47:52.760 1.500E-01 0.500 F 0.292 -0.094 +15° 30' 29.20" 1.000E-01 0.500 F 0.329 0.032 21.1 V 0.70 0.42 c 691 0.20 Yes Yes
1998EC3 O C 2003-12-29.51823 1.000E-05 08:47:51.420 1.500E-01 0.500 F 0.292 -0.301 +15° 30' 37.30" 1.000E-01 0.500 F 0.329 0.014 21.0 V 0.70 0.32 c 691 0.61 Yes Yes
1998EC3 O C 2003-12-29.54555 1.000E-05 08:47:50.160 1.500E-01 0.500 F 0.292 -0.560 +15° 30' 44.50" 1.000E-01 0.500 F 0.329 -0.401 21.5 V 0.70 0.82 c 691 1.38 Yes Yes
2005MM13 O C 2004-01-13.10470 1.000E-05 05:13:32.780 1.500E-01 0.500 F 0.147 0.158 +20° 39' 07.20" 1.000E-01 0.500 F 0.122 -0.450 21.1 V 0.70 0.79 c 691 0.96 Yes Yes
2005MM13 O C 2004-01-13.13231 1.000E-05 05:13:31.300 1.500E-01 0.500 F 0.147 -0.361 +20° 39' 48.90" 1.000E-01 0.500 F 0.122 -0.009 20.6 V 0.70 0.29 c 691 0.75 Yes Yes
2005MM13 O C 2004-01-13.15860 1.000E-05 05:13:29.930 1.500E-01 0.500 F 0.147 -0.194 +20° 40' 28.10" 1.000E-01 0.500 F 0.122 0.016 20.7 V 0.70 0.39 c 691 0.40 Yes Yes
2004AE6 O C 2004-01-15.36227 1.000E-05 08:01:52.780 1.500E-01 0.500 F 0.260 0.417 +23° 00' 09.30" 1.000E-01 0.500 F 0.334 0.469 21.5 V 0.70 0.18 c 691 1.37 Yes Yes
2004AE6 O C 2004-01-15.39163 1.000E-05 08:01:50.000 1.500E-01 0.500 F 0.260 -0.534 +22° 59' 12.00" 1.000E-01 0.500 F 0.334 -0.322 21.9 V 0.70 0.58 c 691 1.37 Yes Yes
2004AE6 O C 2004-01-15.41803 1.000E-05 08:01:47.600 1.500E-01 0.500 F 0.260 -0.433 +22° 58' 20.70" 1.000E-01 0.500 F 0.334 -0.262 21.5 V 0.70 0.19 c 691 1.12 Yes Yes
2003MS2 O C H 2004-01-15.54031 1.000E-05 13:03:04.950 1.500E-01 0.500 F 0.270 -0.022 +32° 04' 36.30" 1.000E-01 0.500 F 0.474 -0.653 c 691 1.31 Yes No
2003MS2 O C H 2004-01-15.54443 1.000E-05 13:03:05.680 1.500E-01 0.500 F 0.270 -0.329 +32° 04' 49.50" 1.000E-01 0.500 F 0.474 -1.801 c 691 3.64 No No
2003MS2 O C H 2004-01-15.54704 1.000E-05 13:03:06.220 1.500E-01 0.500 F 0.270 0.462 +32° 04' 59.20" 1.000E-01 0.500 F 0.474 -1.185 c 691 2.56 Yes No
2004MD O C H 2004-01-16.08779 1.000E-05 06:13:17.570 1.500E-01 0.500 F 0.159 0.038 +32° 36' 47.30" 1.000E-01 0.500 F 0.244 -0.584 c 691 1.17 Yes No
2004BV1 O C 2004-01-16.10427 1.000E-05 06:15:23.270 1.500E-01 0.500 F 0.043 0.364 +27° 05' 13.50" 1.000E-01 0.500 F 0.175 -0.088 21.9 V 0.70 0.97 c 691 0.76 Yes Yes
2004BV1 O C 2004-01-16.13105 1.000E-05 06:15:20.610 1.500E-01 0.500 F 0.043 0.059 +27° 05' 26.80" 1.000E-01 0.500 F 0.175 0.025 22.2 V 0.70 1.27 c 691 0.13 Yes Yes
2004MD O C H 2004-01-16.14253 1.000E-05 06:13:08.980 1.500E-01 0.500 F 0.159 0.456 +32° 37' 32.50" 1.000E-01 0.500 F 0.244 -1.604 c 691 3.33 No No
2004BV1 O C 2004-01-16.16186 1.000E-05 06:15:17.570 1.500E-01 0.500 F 0.043 0.150 +27° 05' 41.50" 1.000E-01 0.500 F 0.175 -0.330 21.4 V 0.70 0.47 c 691 0.73 Yes Yes
2004AE6 O C 2004-01-16.29662 1.000E-05 08:00:42.900 1.500E-01 0.500 F 0.229 0.178 +22° 29' 43.60" 1.000E-01 0.500 F 0.247 0.283 21.4 V 0.70 0.22 c 691 0.70 Yes Yes
2004AE6 O C 2004-01-16.29976 1.000E-05 08:00:42.560 1.500E-01 0.500 F 0.229 -0.254 +22° 29' 36.70" 1.000E-01 0.500 F 0.247 -0.332 21.0 V 0.70 -0.18 c 691 0.88 Yes Yes
2004AE6 O C 2004-01-16.30302 1.000E-05 08:00:42.270 1.500E-01 0.500 F 0.229 0.173 +22° 29' 30.80" 1.000E-01 0.500 F 0.247 0.301 21.3 V 0.70 0.12 c 691 0.73 Yes Yes
2004BW1 O C 2004-01-16.35292 1.000E-05 07:45:54.090 1.500E-01 0.500 F 0.279 0.475 +26° 38' 07.60" 1.000E-01 0.500 F 0.350 -0.262 21.2 V 0.70 0.68 c 691 1.10 Yes Yes
2004BW1 O C 2004-01-16.37991 1.000E-05 07:45:51.480 1.500E-01 0.500 F 0.279 -0.003 +26° 38' 15.80" 1.000E-01 0.500 F 0.350 0.051 21.1 V 0.70 0.58 c 691 0.10 Yes Yes
2004BW1 O C 2004-01-16.40774 1.000E-05 07:45:48.840 1.500E-01 0.500 F 0.279 0.079 +26° 38' 23.60" 1.000E-01 0.500 F 0.350 -0.173 21.5 V 0.70 0.98 c 691 0.38 Yes Yes
1997AP10 O C 2004-01-16.43205 1.000E-05 08:29:17.880 1.500E-01 0.500 F 0.255 -0.340 +17° 21' 30.80" 1.000E-01 0.500 F 0.366 -0.011 20.7 V 0.70 0.98 c 691 0.68 Yes Yes
1997AP10 O C 2004-01-16.46098 1.000E-05 08:29:14.680 1.500E-01 0.500 F 0.255 0.729 +17° 21' 37.80" 1.000E-01 0.500 F 0.366 -0.050 20.3 V 0.70 0.58 c 691 1.46 Yes Yes
1997AP10 O C 2004-01-16.48903 1.000E-05 08:29:11.450 1.500E-01 0.500 F 0.255 -0.162 +17° 21' 44.60" 1.000E-01 0.500 F 0.366 -0.037 20.9 V 0.70 1.18 c 691 0.33 Yes Yes
2003MS2 O C H 2004-01-16.52586 1.000E-05 13:06:17.360 1.500E-01 0.500 F 0.330 0.024 +33° 01' 48.00" 1.000E-01 0.500 F 0.421 -1.442 c 691 2.90 Yes No
2003MS2 O C H 2004-01-16.52899 1.000E-05 13:06:17.880 1.500E-01 0.500 F 0.330 -0.600 +33° 01' 59.00" 1.000E-01 0.500 F 0.421 -1.348 c 691 2.97 Yes No
2003MS2 O C H 2004-01-16.53183 1.000E-05 13:06:18.400 1.500E-01 0.500 F 0.330 -0.560 +33° 02' 08.80" 1.000E-01 0.500 F 0.421 -1.438 c 691 3.11 Yes No
2004BV1 O C H 2004-01-17.17940 1.000E-05 06:13:41.870 1.500E-01 0.500 F 0.043 0.686 +27° 13' 34.90" 1.000E-01 0.500 F 0.175 -0.141 c 691 1.41 Yes No
2004BV1 O C H 2004-01-17.18312 1.000E-05 06:13:41.480 1.500E-01 0.500 F 0.043 0.252 +27° 13' 36.40" 1.000E-01 0.500 F 0.175 -0.377 c 691 0.91 Yes No
2004BV1 O C H 2004-01-17.18683 1.000E-05 06:13:41.130 1.500E-01 0.500 F 0.043 0.340 +27° 13' 37.90" 1.000E-01 0.500 F 0.175 -0.605 c 691 1.39 Yes No
2004BW1 O C 2004-01-17.19456 1.000E-05 07:44:37.740 1.500E-01 0.500 F 0.279 -0.341 +26° 42' 14.30" 1.000E-01 0.500 F 0.350 -0.155 21.5 V 0.70 0.94 c 691 0.76 Yes Yes
2004BW1 O C 2004-01-17.19895 1.000E-05 07:44:37.360 1.500E-01 0.500 F 0.279 0.069 +26° 42' 15.50" 1.000E-01 0.500 F 0.350 -0.285 21.4 V 0.70 0.84 c 691 0.59 Yes Yes
2004BW1 O C 2004-01-17.20445 1.000E-05 07:44:36.850 1.500E-01 0.500 F 0.279 0.133 +26° 42' 17.50" 1.000E-01 0.500 F 0.350 0.053 21.4 V 0.70 0.84 c 691 0.29 Yes Yes
2004AE6 O C 2004-01-17.21023 1.000E-05 07:59:30.490 1.500E-01 0.500 F 0.229 0.349 +21° 57' 54.50" 1.000E-01 0.500 F 0.247 -0.064 21.1 V 0.70 0.07 c 691 0.76 Yes Yes
2004AE6 O C 2004-01-17.21346 1.000E-05 07:59:30.140 1.500E-01 0.500 F 0.229 -0.056 +21° 57' 48.20" 1.000E-01 0.500 F 0.247 0.373 21.5 V 0.70 0.47 c 691 0.79 Yes Yes
2004AE6 O C 2004-01-17.21658 1.000E-05 07:59:29.830 1.500E-01 0.500 F 0.229 -0.045 +21° 57' 41.20" 1.000E-01 0.500 F 0.247 -0.113 21.3 V 0.70 0.27 c 691 0.26 Yes Yes
2003YK118 O C 2004-01-17.50761 1.000E-05 10:47:43.530 1.500E-01 0.500 F 0.367 0.034 +26° 44' 21.70" 1.000E-01 0.500 F 0.361 -0.250 17.2 V 0.70 0.15 c 691 0.51 Yes Yes
2003YK118 O C 2004-01-17.52512 1.000E-05 10:47:47.840 1.500E-01 0.500 F 0.367 -0.178 +26° 43' 56.30" 1.000E-01 0.500 F 0.361 -0.086 17.2 V 0.70 0.15 c 691 0.40 Yes Yes
2003YK118 O C 2004-01-17.54271 1.000E-05 10:47:52.240 1.500E-01 0.500 F 0.367 0.279 +26° 43' 30.20" 1.000E-01 0.500 F 0.361 -0.302 17.2 V 0.70 0.15 c 691 0.83 Yes Yes
2004BV1 O C H 2004-01-18.16607 1.000E-05 06:12:12.300 1.500E-01 0.500 F 0.043 0.438 +27° 20' 56.30" 1.000E-01 0.500 F 0.175 -1.182 c 691 2.53 Yes No
2004BV1 O C H 2004-01-18.17003 1.000E-05 06:12:11.910 1.500E-01 0.500 F 0.043 0.136 +27° 20' 58.50" 1.000E-01 0.500 F 0.175 -0.772 c 691 1.57 Yes No
2004BV1 O C H 2004-01-18.17483 1.000E-05 06:12:11.470 1.500E-01 0.500 F 0.043 0.208 +27° 21' 00.50" 1.000E-01 0.500 F 0.175 -0.937 c 691 1.93 Yes No
2004BW1 O C H 2004-01-18.17962 1.000E-05 07:43:09.170 1.500E-01 0.500 F 0.079 0.601 +26° 46' 50.50" 1.000E-01 0.500 F 0.266 -0.762 c 691 1.96 Yes No
2004BW1 O C H 2004-01-18.18411 1.000E-05 07:43:08.750 1.500E-01 0.500 F 0.079 0.501 +26° 46' 52.20" 1.000E-01 0.500 F 0.266 -0.365 c 691 1.26 Yes No
2004BW1 O C H 2004-01-18.18834 1.000E-05 07:43:08.360 1.500E-01 0.500 F 0.079 0.487 +26° 46' 53.30" 1.000E-01 0.500 F 0.266 -0.491 c 691 1.40 Yes No
2004BF11 O C 2004-01-18.19322 1.000E-05 08:10:31.520 1.500E-01 0.500 F 0.192 0.075 +14° 53' 06.10" 1.000E-01 0.500 F 0.108 -0.015 20.9 V 0.70 0.37 c 691 0.16 Yes Yes
2004BF11 O C 2004-01-18.19679 1.000E-05 08:10:32.020 1.500E-01 0.500 F 0.192 0.020 +14° 53' 01.70" 1.000E-01 0.500 F 0.108 0.136 20.6 V 0.70 0.07 c 691 0.29 Yes Yes
2004BF11 O C 2004-01-18.19981 1.000E-05 08:10:32.430 1.500E-01 0.500 F 0.192 -0.199 +14° 52' 57.80" 1.000E-01 0.500 F 0.108 0.090 20.9 V 0.70 0.37 c 691 0.47 Yes Yes
2004BH11 O C 2004-01-18.21890 1.000E-05 08:02:27.590 1.500E-01 0.500 F 0.203 -0.036 +29° 50' 48.70" 1.000E-01 0.500 F 0.311 0.415 20.1 V 0.70 -0.13 c 691 0.97 Yes Yes
2003YM137 O C 2004-01-18.22194 1.000E-05 07:51:41.990 1.500E-01 0.500 F 0.209 -0.060 +27° 26' 40.80" 1.000E-01 0.500 F 0.303 -0.225 17.7 V 0.70 0.13 c 691 0.47 Yes Yes
2004BH11 O C 2004-01-18.25160 1.000E-05 08:02:21.330 1.500E-01 0.500 F 0.203 -0.333 +29° 49' 05.60" 1.000E-01 0.500 F 0.311 0.026 20.3 V 0.70 0.07 c 691 0.74 Yes Yes
2003YM137 O C 2004-01-18.25445 1.000E-05 07:51:38.250 1.500E-01 0.500 F 0.209 -0.119 +27° 27' 15.90" 1.000E-01 0.500 F 0.303 -0.184 17.6 V 0.70 0.04 c 691 0.44 Yes Yes
2004BH11 O C 2004-01-18.28401 1.000E-05 08:02:15.090 1.500E-01 0.500 F 0.203 -0.203 +29° 47' 22.80" 1.000E-01 0.500 F 0.311 0.030 20.1 V 0.70 -0.13 c 691 0.45 Yes Yes
2003YM137 O C 2004-01-18.28692 1.000E-05 07:51:34.500 1.500E-01 0.500 F 0.209 0.034 +27° 27' 50.50" 1.000E-01 0.500 F 0.303 -0.269 17.8 V 0.70 0.24 c 691 0.55 Yes Yes
2004BJ11 O C 2004-01-18.32414 1.000E-05 07:56:39.760 1.500E-01 0.500 F 0.135 -0.215 +15° 01' 09.80" 1.000E-01 0.500 F 0.436 0.060 22.2 V 0.70 0.38 c 691 0.49 Yes Yes
2004BL11 O C 2004-01-18.34103 1.000E-05 08:02:56.200 1.500E-01 0.500 F 0.044 -0.466 +11° 46' 32.60" 1.000E-01 0.500 F 0.165 -0.025 21.3 V 0.70 0.66 c 691 0.95 Yes Yes
2004BK11 O C 2004-01-18.34103 1.000E-05 08:00:42.450 1.500E-01 0.500 F -0.010 -0.363 +11° 29' 49.70" 1.000E-01 0.500 F 0.247 -0.020 21.1 V 0.70 0.30 c 691 0.78 Yes Yes
2004BJ11 O C 2004-01-18.35546 1.000E-05 07:56:36.360 1.500E-01 0.500 F 0.135 -0.170 +15° 01' 12.80" 1.000E-01 0.500 F 0.436 0.348 22.2 V 0.70 0.38 c 691 0.84 Yes Yes
2004BK11 O C 2004-01-18.36960 1.000E-05 08:00:42.340 1.500E-01 0.500 F -0.010 -0.296 +11° 29' 12.70" 1.000E-01 0.500 F 0.247 0.104 21.3 V 0.70 0.50 c 691 0.67 Yes Yes
2004BL11 O C 2004-01-18.36960 1.000E-05 08:02:51.390 1.500E-01 0.500 F 0.044 0.274 +11° 46' 57.00" 1.000E-01 0.500 F 0.165 -0.300 21.2 V 0.70 0.56 c 691 0.82 Yes Yes
2004BJ11 O C 2004-01-18.38362 1.000E-05 07:56:33.280 1.500E-01 0.500 F 0.135 -0.593 +15° 01' 14.60" 1.000E-01 0.500 F 0.436 -0.182 22.6 V 0.70 0.78 c 691 1.37 Yes Yes
2004BL11 O C 2004-01-18.39936 1.000E-05 08:02:46.270 1.500E-01 0.500 F 0.044 -0.678 +11° 47' 23.30" 1.000E-01 0.500 F 0.165 0.361 21.1 V 0.70 0.46 c 691 1.55 Yes Yes
2004BK11 O C 2004-01-18.39936 1.000E-05 08:00:42.250 1.500E-01 0.500 F -0.010 -0.151 +11° 28' 33.80" 1.000E-01 0.500 F 0.247 0.035 21.1 V 0.70 0.30 c 691 0.33 Yes Yes
2004BV18 O C t 2004-01-19.07591 1.000E-05 05:20:08.940 1.500E-01 0.500 F 0.104 0.289 +35° 09' 39.70" 1.000E-01 0.500 F 0.174 -0.653 c 691 1.52 Yes No
2004BV18 O C t 2004-01-19.10321 1.000E-05 05:20:59.730 1.500E-01 0.500 F 0.104 2.204 +35° 07' 17.10" 1.000E-01 0.500 F 0.174 -1.219 c 691 4.64 No No
2004BV18 O C t 2004-01-19.13010 1.000E-05 05:21:49.340 1.500E-01 0.500 F 0.104 6.323 +35° 04' 47.50" 1.000E-01 0.500 F 0.174 -2.261 c 691 12.32 No No
2004BV1 O C H 2004-01-19.15902 1.000E-05 06:10:45.440 1.500E-01 0.500 F 0.009 1.131 +27° 28' 06.60" 1.000E-01 0.500 F 0.151 -0.583 c 691 2.56 Yes No
2004BV1 O C H 2004-01-19.16345 1.000E-05 06:10:44.990 1.500E-01 0.500 F 0.009 0.412 +27° 28' 08.90" 1.000E-01 0.500 F 0.151 -0.217 c 691 0.94 Yes No
2004BV1 O C H 2004-01-19.16755 1.000E-05 06:10:44.650 1.500E-01 0.500 F 0.009 0.766 +27° 28' 10.50" 1.000E-01 0.500 F 0.151 -0.405 c 691 1.75 Yes No
2004BH11 O C t 2004-01-19.17362 1.000E-05 08:00:00.020 1.500E-01 0.500 F 0.191 0.304 +29° 00' 50.20" 1.000E-01 0.500 F 0.149 -0.336 c 691 0.97 Yes No
2004BH11 O C t 2004-01-19.17648 1.000E-05 07:59:59.550 1.500E-01 0.500 F 0.191 0.419 +29° 00' 42.10" 1.000E-01 0.500 F 0.149 -0.230 c 691 1.02 Yes No
2004BH11 O C t 2004-01-19.17915 1.000E-05 07:59:59.090 1.500E-01 0.500 F 0.191 0.262 +29° 00' 34.40" 1.000E-01 0.500 F 0.149 -0.265 c 691 0.79 Yes No
2004BK11 O C H 2004-01-19.18792 1.000E-05 08:00:50.000 1.500E-01 0.500 F 0.043 0.580 +11° 11' 37.50" 1.000E-01 0.500 F 0.184 -0.525 c 691 1.66 Yes No
2004BK11 O C H 2004-01-19.19235 1.000E-05 08:00:49.990 1.500E-01 0.500 F 0.043 0.497 +11° 11' 32.30" 1.000E-01 0.500 F 0.184 -0.147 c 691 1.10 Yes No
2004BK11 O C H 2004-01-19.19655 1.000E-05 08:00:49.970 1.500E-01 0.500 F 0.043 0.277 +11° 11' 27.00" 1.000E-01 0.500 F 0.184 -0.157 c 691 0.68 Yes No
2004BL11 O C 2004-01-19.20225 1.000E-05 08:00:33.890 1.500E-01 0.500 F -0.010 -0.194 +11° 58' 55.50" 1.000E-01 0.500 F 0.247 -0.087 21.3 V 0.70 0.66 c 691 0.43 Yes Yes
2004BL11 O C 2004-01-19.20545 1.000E-05 08:00:33.370 1.500E-01 0.500 F -0.010 0.057 +11° 58' 58.30" 1.000E-01 0.500 F 0.247 -0.062 21.0 V 0.70 0.36 c 691 0.17 Yes Yes
2004BL11 O C 2004-01-19.20840 1.000E-05 08:00:32.880 1.500E-01 0.500 F -0.010 0.134 +11° 59' 00.80" 1.000E-01 0.500 F 0.247 -0.119 21.2 V 0.70 0.56 c 691 0.36 Yes Yes
2004BJ11 O C H 2004-01-19.21712 1.000E-05 07:55:09.220 1.500E-01 0.500 F 0.175 0.595 +15° 02' 30.20" 1.000E-01 0.500 F 0.375 -0.498 c 691 1.66 Yes No
2004BJ11 O C H 2004-01-19.22044 1.000E-05 07:55:08.870 1.500E-01 0.500 F 0.175 0.619 +15° 02' 30.50" 1.000E-01 0.500 F 0.375 -0.546 c 691 1.77 Yes No
2004BF11 O C t 2004-01-19.22351 1.000E-05 08:13:11.590 1.500E-01 0.612 F 0.102 0.345 +14° 30' 16.30" 1.000E-01 0.612 F 0.355 -0.481 c 691 1.00 Yes No
2004BF11 O C t 2004-01-19.22639 1.000E-05 08:13:11.950 1.500E-01 0.612 F 0.102 -0.146 +14° 30' 13.00" 1.000E-01 0.612 F 0.355 -0.105 c 691 0.30 Yes No
2004BF11 O C t 2004-01-19.22923 1.000E-05 08:13:12.400 1.500E-01 0.612 F 0.102 0.759 +14° 30' 08.90" 1.000E-01 0.612 F 0.355 -0.577 c 691 1.61 Yes No
2004BF11 O C 2004-01-19.23210 1.000E-05 08:13:12.740 1.500E-01 0.612 F 0.102 0.017 +14° 30' 05.80" 1.000E-01 0.612 F 0.355 -0.007 20.8 V 0.70 0.27 c 691 0.03 Yes Yes
2004BF11 O C 2004-01-19.23490 1.000E-05 08:13:13.120 1.500E-01 0.612 F 0.102 0.003 +14° 30' 02.30" 1.000E-01 0.612 F 0.355 0.076 20.7 V 0.70 0.17 c 691 0.13 Yes Yes
2004BF11 O C 2004-01-19.23781 1.000E-05 08:13:13.500 1.500E-01 0.612 F 0.102 -0.218 +14° 29' 58.70" 1.000E-01 0.612 F 0.355 0.204 20.7 V 0.70 0.17 c 691 0.50 Yes Yes
1999RV2 O C 2004-01-19.24761 1.000E-05 08:48:27.920 1.500E-01 0.500 F 0.303 -0.127 +22° 50' 10.20" 1.000E-01 0.500 F 0.342 -0.230 21.3 V 0.70 0.28 c 691 0.53 Yes Yes
2004PJ2 O C H 2004-01-19.25304 1.000E-05 08:43:48.580 1.500E-01 0.500 F 0.246 -0.195 +20° 15' 55.30" 1.000E-01 0.500 F 0.312 -0.642 c 691 1.35 Yes No
2003YS117 O C 2004-01-19.26956 1.000E-05 08:41:55.960 1.500E-01 0.500 F 0.236 -0.075 +15° 42' 18.30" 1.000E-01 0.500 F 0.306 -0.040 18.9 V 0.70 0.77 c 691 0.17 Yes Yes
1999AJ39 O C 2004-01-19.26956 1.000E-05 08:44:57.790 1.500E-01 0.500 F 0.171 -0.987 +16° 09' 27.30" 1.000E-01 0.500 F 0.268 -0.300 21.6 V 0.70 0.38 c 691 2.09 Yes Yes
1999RV2 O C 2004-01-19.27572 1.000E-05 08:48:25.350 1.500E-01 0.500 F 0.303 0.221 +22° 50' 15.60" 1.000E-01 0.500 F 0.342 -0.110 21.7 V 0.70 0.68 c 691 0.50 Yes Yes
2004PJ2 O C H 2004-01-19.28118 1.000E-05 08:43:45.320 1.500E-01 0.500 F 0.246 0.104 +20° 16' 03.10" 1.000E-01 0.500 F 0.312 -0.367 c 691 0.78 Yes No
2003YS117 O C 2004-01-19.29846 1.000E-05 08:41:49.640 1.500E-01 0.500 F 0.236 -0.117 +15° 41' 28.20" 1.000E-01 0.500 F 0.306 -0.055 18.7 V 0.70 0.57 c 691 0.26 Yes Yes
1999AJ39 O C 2004-01-19.29846 1.000E-05 08:44:52.920 1.500E-01 0.500 F 0.171 0.060 +16° 09' 19.80" 1.000E-01 0.500 F 0.268 0.037 21.6 V 0.70 0.39 c 691 0.14 Yes Yes
1999RV2 O C 2004-01-19.30526 1.000E-05 08:48:22.540 1.500E-01 0.500 F 0.303 -0.822 +22° 50' 21.10" 1.000E-01 0.500 F 0.342 -0.074 22.0 V 0.70 0.98 c 691 1.68 Yes Yes
2004PJ2 O C H 2004-01-19.31098 1.000E-05 08:43:41.760 1.500E-01 0.500 F 0.246 -0.844 +20° 16' 11.10" 1.000E-01 0.500 F 0.312 -0.176 c 691 1.78 Yes No
2003YS117 O C 2004-01-19.32858 1.000E-05 08:41:43.040 1.500E-01 0.500 F 0.236 -0.150 +15° 40' 35.70" 1.000E-01 0.500 F 0.306 -0.187 18.2 V 0.70 0.08 c 691 0.48 Yes Yes
1999AJ39 O C 2004-01-19.32858 1.000E-05 08:44:47.770 1.500E-01 0.500 F 0.171 0.266 +16° 09' 11.50" 1.000E-01 0.500 F 0.268 0.046 21.6 V 0.70 0.39 c 691 0.55 Yes Yes
Golombek O C 2004-01-19.35507 1.000E-05 09:02:34.700 1.500E-01 0.500 F 0.494 -0.046 +18° 04' 13.90" 1.000E-01 0.500 F 0.334 0.131 21.0 V 0.70 0.58 c 691 0.28 Yes Yes
Golombek O C 2004-01-19.38266 1.000E-05 09:02:32.900 1.500E-01 0.500 F 0.494 -0.005 +18° 04' 18.20" 1.000E-01 0.500 F 0.334 -0.196 20.9 V 0.70 0.48 c 691 0.39 Yes Yes
Golombek O C 2004-01-19.41032 1.000E-05 09:02:31.090 1.500E-01 0.500 F 0.494 -0.048 +18° 04' 23.00" 1.000E-01 0.500 F 0.334 -0.004 21.6 V 0.70 1.19 c 691 0.10 Yes Yes
2003VG1 O C 2004-01-19.51014 1.000E-05 11:05:06.390 1.500E-01 0.500 F 0.473 -0.132 +28° 10' 40.30" 1.000E-01 0.500 F 0.240 -0.017 17.9 V 0.70 0.56 c 691 0.27 Yes Yes
2003YK118 O C 2004-01-19.51282 1.000E-05 10:56:55.520 1.500E-01 0.500 F 0.337 -0.010 +25° 52' 06.10" 1.000E-01 0.500 F 0.402 -0.145 16.9 V 0.70 0.03 c 691 0.29 Yes Yes
2003VG1 O C 2004-01-19.52347 1.000E-05 11:05:06.580 1.500E-01 0.500 F 0.473 -0.005 +28° 09' 59.60" 1.000E-01 0.500 F 0.240 -0.082 18.0 V 0.70 0.66 c 691 0.17 Yes Yes
2003YK118 O C 2004-01-19.52615 1.000E-05 10:56:59.200 1.500E-01 0.500 F 0.337 0.092 +25° 51' 42.40" 1.000E-01 0.500 F 0.402 -0.132 16.9 V 0.70 0.04 c 691 0.32 Yes Yes
2003VG1 O C 2004-01-19.53683 1.000E-05 11:05:06.770 1.500E-01 0.500 F 0.473 0.021 +28° 09' 18.90" 1.000E-01 0.500 F 0.240 0.037 17.9 V 0.70 0.56 c 691 0.09 Yes Yes
2003YK118 O C 2004-01-19.53962 1.000E-05 10:57:02.920 1.500E-01 0.500 F 0.337 0.037 +25° 51' 18.30" 1.000E-01 0.500 F 0.402 -0.139 16.9 V 0.70 0.04 c 691 0.29 Yes Yes
2004BV1 O C F 2004-01-21.08977 1.000E-05 06:08:06.110 1.500E-01 0.500 F 0.002 0.518 +27° 41' 18.60" 1.000E-01 0.500 F 0.231 -0.072 c 691 1.06 Yes No
2004BV1 O C I 2004-01-21.09344 1.000E-05 06:08:05.760 1.500E-01 0.500 F 0.002 -0.146 +27° 41' 19.70" 1.000E-01 0.500 F 0.231 -0.495 c 691 1.04 Yes No
2004BV1 O C F 2004-01-21.09694 1.000E-05 06:08:05.530 1.500E-01 0.500 F 0.002 0.601 +27° 41' 21.90" 1.000E-01 0.500 F 0.231 0.255 c 691 1.32 Yes No
2004BV18 O C t 2004-01-21.10010 1.000E-05 06:32:24.650 1.500E-01 0.500 F 0.090 1.178 +29° 49' 07.20" 1.000E-01 0.500 F 0.166 -0.315 c 691 2.58 Yes No
2004BV18 O C t 2004-01-21.10271 1.000E-05 06:32:29.890 1.500E-01 0.500 F 0.090 1.220 +29° 48' 37.80" 1.000E-01 0.500 F 0.166 -0.510 c 691 2.80 Yes No
2004BV18 O C t 2004-01-21.10529 1.000E-05 06:32:35.060 1.500E-01 0.500 F 0.090 1.253 +29° 48' 09.10" 1.000E-01 0.500 F 0.166 -0.277 c 691 2.72 Yes No
2004BW1 O C H 2004-01-21.11006 1.000E-05 07:38:54.750 1.500E-01 0.500 F -0.031 0.278 +26° 59' 14.40" 1.000E-01 0.500 F 0.480 -0.688 c 691 1.50 Yes No
2004BW1 O C H 2004-01-21.11439 1.000E-05 07:38:54.400 1.500E-01 0.500 F -0.031 0.561 +26° 59' 16.10" 1.000E-01 0.500 F 0.480 -0.088 c 691 1.16 Yes No
2004BW1 O C H 2004-01-21.11879 1.000E-05 07:38:54.000 1.500E-01 0.500 F -0.031 0.261 +26° 59' 16.80" 1.000E-01 0.500 F 0.480 -0.504 c 691 1.15 Yes No
2004BA75 O C 2004-01-27.20984 1.000E-05 07:48:54.610 1.500E-01 0.500 F 0.434 -0.200 +16° 43' 12.80" 1.000E-01 0.500 F 0.492 0.116 21.3 V 0.70 0.21 c 691 0.57 Yes Yes
2004BA75 O C 2004-01-27.23737 1.000E-05 07:48:54.360 1.500E-01 0.500 F 0.434 -0.101 +16° 44' 15.60" 1.000E-01 0.500 F 0.492 -0.252 21.2 V 0.70 0.11 c 691 0.65 Yes Yes
2004BA75 O C 2004-01-27.26508 1.000E-05 07:48:54.090 1.500E-01 0.500 F 0.434 0.180 +16° 45' 18.70" 1.000E-01 0.500 F 0.492 -0.039 21.8 V 0.70 0.70 c 691 0.42 Yes Yes
2000NG11 O C 2004-01-27.45293 1.000E-05 11:55:56.170 1.500E-01 0.612 F 0.352 -0.205 +01° 44' 38.30" 1.000E-01 0.612 F 0.537 -0.149 20.7 V 0.70 -0.05 c 691 0.41 Yes Yes
2000NG11 O C 2004-01-27.45559 1.000E-05 11:55:56.100 1.500E-01 0.612 F 0.352 -0.287 +01° 44' 38.70" 1.000E-01 0.612 F 0.537 -0.203 20.8 V 0.70 0.05 c 691 0.57 Yes Yes
2000NG11 O C 2004-01-27.47659 1.000E-05 11:55:55.590 1.500E-01 0.612 F 0.352 -0.287 +01° 44' 42.30" 1.000E-01 0.612 F 0.537 -0.193 21.4 V 0.70 0.65 c 691 0.56 Yes Yes
2000NG11 O C 2004-01-27.47931 1.000E-05 11:55:55.540 1.500E-01 0.612 F 0.352 -0.045 +01° 44' 42.70" 1.000E-01 0.612 F 0.537 -0.258 21.6 V 0.70 0.85 c 691 0.43 Yes Yes
2000NG11 O C 2004-01-27.49896 1.000E-05 11:55:55.040 1.500E-01 0.612 F 0.352 -0.384 +01° 44' 46.10" 1.000E-01 0.612 F 0.537 -0.220 21.5 V 0.70 0.75 c 691 0.72 Yes Yes
2000NG11 O C 2004-01-27.50177 1.000E-05 11:55:54.990 1.500E-01 0.612 F 0.352 -0.111 +01° 44' 46.70" 1.000E-01 0.612 F 0.537 -0.101 21.4 V 0.70 0.65 c 691 0.24 Yes Yes
1997AE12 O C 2004-01-28.08552 1.000E-05 05:10:13.450 1.500E-01 0.500 F -0.019 -0.019 +26° 30' 53.10" 1.000E-01 0.500 F 0.328 -0.139 20.4 V 0.70 0.29 c 691 0.28 Yes Yes
1997AE12 O C 2004-01-28.11713 1.000E-05 05:10:14.760 1.500E-01 0.500 F -0.019 0.167 +26° 30' 44.00" 1.000E-01 0.500 F 0.328 -0.112 20.5 V 0.70 0.39 c 691 0.40 Yes Yes
1997AE12 O C 2004-01-28.14503 1.000E-05 05:10:15.900 1.500E-01 0.500 F -0.019 0.184 +26° 30' 35.60" 1.000E-01 0.500 F 0.328 -0.358 20.5 V 0.70 0.39 c 691 0.81 Yes Yes
1999RV2 O C 2004-01-28.17904 1.000E-05 08:35:17.630 1.500E-01 0.500 F 0.145 -0.454 +23° 12' 10.30" 1.000E-01 0.500 F 0.403 -0.115 21.6 V 0.70 0.60 c 691 0.95 Yes Yes
2004PJ2 O C H 2004-01-28.18187 1.000E-05 08:25:00.370 1.500E-01 0.500 F 0.278 0.020 +20° 53' 14.00" 1.000E-01 0.500 F 0.149 -0.344 c 691 0.70 Yes No
2001AA50 O C 2004-01-28.20102 1.000E-05 08:32:54.670 1.500E-01 0.500 F 0.348 0.067 +15° 41' 44.80" 1.000E-01 0.500 F 0.248 -0.032 18.1 V 0.70 0.26 c 691 0.15 Yes Yes
1999RV2 O C 2004-01-28.20685 1.000E-05 08:35:15.180 1.500E-01 0.500 F 0.145 -0.618 +23° 12' 13.70" 1.000E-01 0.500 F 0.403 -0.164 22.1 V 0.70 1.10 c 691 1.30 Yes Yes
2004PJ2 O C H 2004-01-28.20978 1.000E-05 08:24:56.360 1.500E-01 0.500 F 0.278 0.676 +20° 53' 21.10" 1.000E-01 0.500 F 0.149 -0.476 c 691 1.73 Yes No
2001AA50 O C 2004-01-28.22902 1.000E-05 08:32:45.630 1.500E-01 0.500 F 0.348 -0.075 +15° 40' 10.30" 1.000E-01 0.500 F 0.248 -0.043 18.1 V 0.70 0.26 c 691 0.17 Yes Yes
1999RV2 O C 2004-01-28.23507 1.000E-05 08:35:12.690 1.500E-01 0.500 F 0.145 -0.721 +23° 12' 17.30" 1.000E-01 0.500 F 0.403 0.006 21.8 V 0.70 0.80 c 691 1.47 Yes Yes
2004PJ2 O C H 2004-01-28.23797 1.000E-05 08:24:52.200 1.500E-01 0.500 F 0.278 0.128 +20° 53' 28.40" 1.000E-01 0.500 F 0.149 -0.327 c 691 0.72 Yes No
2001AA50 O C 2004-01-28.25702 1.000E-05 08:32:36.590 1.500E-01 0.500 F 0.348 -0.030 +15° 38' 35.70" 1.000E-01 0.500 F 0.248 -0.046 18.4 V 0.70 0.55 c 691 0.11 Yes Yes
2003HR32 O C 2004-01-28.36225 1.000E-05 08:19:39.340 1.500E-01 0.500 F 0.233 0.327 +29° 00' 57.70" 1.000E-01 0.500 F 0.372 -0.380 21.1 V 0.70 0.28 c 691 1.01 Yes Yes
Itokawa O C 2004-01-28.38188 1.000E-05 08:30:15.010 1.500E-01 0.500 F 0.348 -0.259 +24° 48' 06.30" 1.000E-01 0.500 F 0.432 -0.038 18.6 V 0.70 1.01 c 691 0.52 Yes Yes
2003HR32 O C 2004-01-28.39058 1.000E-05 08:19:35.800 1.500E-01 0.500 F 0.233 -0.029 +29° 01' 01.00" 1.000E-01 0.500 F 0.372 -0.198 21.4 V 0.70 0.58 c 691 0.40 Yes Yes
Itokawa O C 2004-01-28.41053 1.000E-05 08:30:10.830 1.500E-01 0.500 F 0.348 -0.220 +24° 48' 28.50" 1.000E-01 0.500 F 0.432 0.074 19.3 V 0.70 1.71 c 691 0.46 Yes Yes
2003HR32 O C 2004-01-28.41925 1.000E-05 08:19:32.240 1.500E-01 0.500 F 0.233 -0.212 +29° 01' 04.10" 1.000E-01 0.500 F 0.372 -0.160 22.0 V 0.70 1.18 c 691 0.53 Yes Yes
Itokawa O C 2004-01-28.43904 1.000E-05 08:30:06.720 1.500E-01 0.500 F 0.348 0.110 +24° 48' 50.20" 1.000E-01 0.500 F 0.432 0.046 18.5 V 0.70 0.91 c 691 0.24 Yes Yes
1998WT30 O C 2004-01-30.10077 1.000E-05 06:21:03.700 1.500E-01 0.500 F 0.099 -0.041 +25° 15' 24.70" 1.000E-01 0.500 F 0.222 0.073 19.3 V 0.70 0.20 c 691 0.17 Yes Yes
1998WT30 O C 2004-01-30.12798 1.000E-05 06:21:02.910 1.500E-01 0.500 F 0.099 0.004 +25° 15' 26.00" 1.000E-01 0.500 F 0.222 0.172 19.3 V 0.70 0.20 c 691 0.36 Yes Yes
1998WT30 O C 2004-01-30.16223 1.000E-05 06:21:01.880 1.500E-01 0.500 F 0.099 -0.013 +25° 15' 27.00" 1.000E-01 0.500 F 0.222 -0.007 19.3 V 0.70 0.20 c 691 0.03 Yes Yes
2004BS102 O C 2004-01-30.19720 1.000E-05 08:40:21.950 1.500E-01 0.500 F 0.317 -0.006 +20° 07' 53.40" 1.000E-01 0.500 F 0.302 -0.034 20.8 V 0.70 0.61 c 691 0.07 Yes Yes
2001XT1 O C 2004-01-30.20371 1.000E-05 08:39:42.530 1.500E-01 0.500 F 0.268 -0.212 +19° 14' 47.10" 1.000E-01 0.500 F 0.279 -0.021 20.2 V 0.70 0.21 c 691 0.42 Yes Yes
2004BS102 O C 2004-01-30.22700 1.000E-05 08:40:18.890 1.500E-01 0.500 F 0.317 -0.337 +20° 08' 45.50" 1.000E-01 0.500 F 0.302 -0.079 20.5 V 0.70 0.31 c 691 0.73 Yes Yes
2001XT1 O C 2004-01-30.23243 1.000E-05 08:39:38.670 1.500E-01 0.500 F 0.268 0.139 +19° 14' 58.00" 1.000E-01 0.500 F 0.279 -0.047 20.4 V 0.70 0.41 c 691 0.30 Yes Yes
2004BS102 O C 2004-01-30.25527 1.000E-05 08:40:16.020 1.500E-01 0.500 F 0.317 -0.037 +20° 09' 34.80" 1.000E-01 0.500 F 0.302 -0.131 20.3 V 0.70 0.11 c 691 0.28 Yes Yes
2001XT1 O C 2004-01-30.26072 1.000E-05 08:39:34.800 1.500E-01 0.500 F 0.268 -0.364 +19° 15' 08.70" 1.000E-01 0.500 F 0.279 -0.018 20.7 V 0.70 0.71 c 691 0.73 Yes Yes
1991CB1 O C 2004-01-30.27869 1.000E-05 09:04:42.460 1.500E-01 0.500 F 0.332 -0.575 +19° 11' 30.10" 1.000E-01 0.500 F 0.290 -0.212 21.6 V 0.70 0.94 c 691 1.23 Yes Yes
2004BG121 O C 2004-01-30.27869 1.000E-05 09:07:10.240 1.500E-01 0.500 F 0.332 -0.961 +18° 39' 41.90" 1.000E-01 0.500 F 0.290 0.488 22.2 V 0.70 1.05 c 691 2.17 Yes Yes
1999BY9 O C 2004-01-30.29609 1.000E-05 09:08:52.500 1.500E-01 0.500 F 0.228 -0.170 +13° 36' 52.10" 1.000E-01 0.500 F 0.301 0.027 17.6 V 0.70 0.32 c 691 0.35 Yes Yes
1991CB1 O C 2004-01-30.32201 1.000E-05 09:04:38.300 1.500E-01 0.500 F 0.332 -0.116 +19° 11' 38.30" 1.000E-01 0.500 F 0.290 -0.373 21.6 V 0.70 0.94 c 691 0.78 Yes Yes
2004BG121 O C 2004-01-30.32201 1.000E-05 09:07:06.230 1.500E-01 0.500 F 0.332 -0.107 +18° 40' 26.70" 1.000E-01 0.500 F 0.290 0.103 21.5 V 0.70 0.35 c 691 0.30 Yes Yes
1999BY9 O C 2004-01-30.33794 1.000E-05 09:08:50.320 1.500E-01 0.500 F 0.228 -0.164 +13° 36' 54.30" 1.000E-01 0.500 F 0.301 0.014 17.7 V 0.70 0.42 c 691 0.33 Yes Yes
1991CB1 O C 2004-01-30.34922 1.000E-05 09:04:35.660 1.500E-01 0.500 F 0.332 -0.190 +19° 11' 43.50" 1.000E-01 0.500 F 0.290 -0.367 21.2 V 0.70 0.54 c 691 0.83 Yes Yes
2004BG121 O C 2004-01-30.34922 1.000E-05 09:07:03.670 1.500E-01 0.500 F 0.332 -0.127 +18° 40' 54.70" 1.000E-01 0.500 F 0.290 -0.190 22.0 V 0.70 0.85 c 691 0.46 Yes Yes
1999BY9 O C 2004-01-30.38036 1.000E-05 09:08:48.110 1.500E-01 0.500 F 0.228 -0.163 +13° 36' 56.30" 1.000E-01 0.500 F 0.301 0.059 17.7 V 0.70 0.42 c 691 0.35 Yes Yes
2003YR70 O C 2004-01-30.42250 1.000E-05 10:00:35.670 1.500E-01 0.500 F 0.413 -0.026 +08° 14' 43.90" 1.000E-01 0.500 F 0.239 0.076 17.7 V 0.70 0.69 c 691 0.16 Yes Yes
2003YR70 O C 2004-01-30.44989 1.000E-05 10:00:40.350 1.500E-01 0.500 F 0.413 -0.194 +08° 13' 32.90" 1.000E-01 0.500 F 0.239 0.253 17.2 V 0.70 0.19 c 691 0.65 Yes Yes
2003YR70 O C 2004-01-30.48126 1.000E-05 10:00:45.800 1.500E-01 0.500 F 0.413 -0.001 +08° 12' 10.90" 1.000E-01 0.500 F 0.239 0.083 17.2 V 0.70 0.19 c 691 0.17 Yes Yes
2000NG11 O C 2004-01-30.49277 1.000E-05 11:54:39.110 1.500E-01 0.612 F 0.352 -0.569 +01° 54' 17.50" 1.000E-01 0.612 F 0.537 -0.291 21.8 V 0.70 1.11 c 691 1.04 Yes Yes
2000NG11 O C 2004-01-30.49545 1.000E-05 11:54:39.030 1.500E-01 0.612 F 0.352 -0.545 +01° 54' 18.50" 1.000E-01 0.612 F 0.537 0.147 21.8 V 0.70 1.11 c 691 0.92 Yes Yes
2000NG11 O C 2004-01-30.51530 1.000E-05 11:54:38.460 1.500E-01 0.612 F 0.352 -0.041 +01° 54' 22.20" 1.000E-01 0.612 F 0.537 -0.322 21.8 V 0.70 1.11 c 691 0.53 Yes Yes
2000NG11 O C 2004-01-30.51809 1.000E-05 11:54:38.350 1.500E-01 0.612 F 0.352 -0.419 +01° 54' 23.20" 1.000E-01 0.612 F 0.537 0.092 21.2 V 0.70 0.51 c 691 0.70 Yes Yes
2000NG11 O C 2004-01-30.53782 1.000E-05 11:54:37.760 1.500E-01 0.612 F 0.352 -0.293 +01° 54' 27.30" 1.000E-01 0.612 F 0.537 0.045 21.2 V 0.70 0.51 c 691 0.48 Yes Yes
2000NG11 O C 2004-01-30.54047 1.000E-05 11:54:37.690 1.500E-01 0.612 F 0.352 -0.139 +01° 54' 27.90" 1.000E-01 0.612 F 0.537 0.088 20.9 V 0.70 0.21 c 691 0.27 Yes Yes
2004BG121 O C H 2004-02-11.26862 1.000E-05 08:49:06.960 1.500E-01 0.500 F 0.320 1.023 +21° 56' 06.80" 1.000E-01 0.500 F 0.274 -0.580 c 691 2.36 Yes No
2004BG121 O C H 2004-02-11.27296 1.000E-05 08:49:06.510 1.500E-01 0.500 F 0.320 0.178 +21° 56' 10.70" 1.000E-01 0.500 F 0.274 -0.607 c 691 1.27 Yes No
2004BG121 O C H 2004-02-11.27719 1.000E-05 08:49:06.110 1.500E-01 0.500 F 0.320 -0.108 +21° 56' 14.40" 1.000E-01 0.500 F 0.274 -0.732 c 691 1.48 Yes No
2003YT124 O C 2004-02-11.28040 1.000E-05 09:11:10.080 1.500E-01 0.500 F 0.294 0.038 +18° 45' 15.00" 1.000E-01 0.500 F 0.297 0.036 20.6 V 0.70 0.86 c 691 0.11 Yes Yes
2003YT124 O C 2004-02-11.30756 1.000E-05 09:11:08.840 1.500E-01 0.500 F 0.294 -0.224 +18° 44' 55.20" 1.000E-01 0.500 F 0.297 -0.008 20.5 V 0.70 0.75 c 691 0.46 Yes Yes
2003YT124 O C 2004-02-11.33606 1.000E-05 09:11:07.570 1.500E-01 0.500 F 0.294 -0.100 +18° 44' 33.80" 1.000E-01 0.500 F 0.297 -0.505 20.5 V 0.70 0.75 c 691 1.06 Yes Yes
2013KY1 O C 2004-02-11.38312 1.000E-05 09:17:13.110 1.500E-01 0.500 F 0.329 0.241 +24° 09' 58.20" 1.000E-01 0.500 F 0.566 -0.457 22.1 V 0.70 0.76 c 691 1.04 Yes Yes
2013KY1 O C 2004-02-11.41172 1.000E-05 09:17:11.000 1.500E-01 0.500 F 0.329 -0.174 +24° 10' 18.50" 1.000E-01 0.500 F 0.566 -0.037 21.8 V 0.70 0.46 c 691 0.36 Yes Yes
2013KY1 O C 2004-02-11.43889 1.000E-05 09:17:09.010 1.500E-01 0.500 F 0.329 -0.451 +24° 10' 37.40" 1.000E-01 0.500 F 0.566 0.026 22.1 V 0.70 0.76 c 691 0.93 Yes Yes
2004CZ1 O C 2004-02-12.12941 1.000E-05 08:33:35.160 1.500E-01 0.500 F 0.246 0.320 +16° 09' 02.60" 1.000E-01 0.500 F 0.308 -0.120 20.2 V 0.70 0.37 c 691 0.70 Yes Yes
2004CZ1 O C 2004-02-12.15673 1.000E-05 08:33:28.830 1.500E-01 0.500 F 0.246 -0.265 +16° 09' 52.20" 1.000E-01 0.500 F 0.308 0.012 20.0 V 0.70 0.17 c 691 0.54 Yes Yes
2004CZ1 O C 2004-02-12.18347 1.000E-05 08:33:22.560 1.500E-01 0.500 F 0.246 0.227 +16° 10' 40.10" 1.000E-01 0.500 F 0.308 -0.159 20.0 V 0.70 0.17 c 691 0.57 Yes Yes
2004BG121 O C H 2004-02-12.28916 1.000E-05 08:47:38.910 1.500E-01 0.750 F 0.279 -0.059 +22° 11' 19.50" 1.000E-01 0.750 F 0.295 -1.180 c 691 1.58 Yes No

[1-200] [201-400] [401-600] [601-800] [801-1000] [1001-1200] [1201-1400] [1401-1600] [1601-1800] [1801-2000] [2001-2200] [2201-2400] [2401-2600] [2601-2800] [2801-3000] [3001-3200] [3201-3400] [3401-3600] [3601-3800] [3801-4000] [4001-4200] [4201-4400] [4401-4600] [4601-4800] [4801-5000] [5001-5200] [5201-5400] [5401-5600] [5601-5800] [5801-6000] [6001-6200] [6201-6400] [6401-6600] [6601-6800] [6801-7000] [7001-7200] [7201-7400] [7401-7600] [7601-7800] [7801-8000] [8001-8200] [8201-8400] [8401-8600] [8601-8800] [8801-9000] [9001-9200] [9201-9400] [9401-9600] [9601-9800] [9801-10000] [10001-10200] [10201-10400] [10401-10600] [10601-10800] [10801-11000] [11001-11200] [11201-11400] [11401-11600] [11601-11800] [11801-12000] [12001-12200] [12201-12400] [12401-12600] [12601-12800] [12801-13000] [13001-13200] [13201-13400] [13401-13600] [13601-13800] [13801-14000] [14001-14200] [14201-14400] [14401-14600] [14601-14800] [14801-15000] [15001-15200] [15201-15400] [15401-15600] [15601-15800] [15801-16000] [16001-16200] [16201-16400] [16401-16600] [16601-16800] [16801-17000] [17001-17200] [17201-17400] [17401-17600] [17601-17800] [17801-18000] [18001-18200] [18201-18400] [18401-18600] [18601-18800] [18801-19000] [19001-19200] [19201-19400] [19401-19600] [19601-19800] [19801-20000] [20001-20200] [20201-20400] [20401-20600] [20601-20800] [20801-21000] [21001-21200] [21201-21400] [21401-21600] [21601-21800] [21801-22000] [22001-22200] [22201-22400] [22401-22600] [22601-22800] [22801-23000] [23001-23200] [23201-23400] [23401-23600] [23601-23800] [23801-24000] [24001-24200] [24201-24400] [24401-24600] [24601-24800] [24801-25000] [25001-25200] [25201-25400] [25401-25600] [25601-25800] [25801-26000] [26001-26200] [26201-26400] [26401-26600] [26601-26800] [26801-27000] [27001-27200] [27201-27400] [27401-27600] [27601-27800] [27801-28000] [28001-28200] [28201-28400] [28401-28600] [28601-28800] [28801-29000] [29001-29200] [29201-29400] [29401-29600] [29601-29800] [29801-30000] [30001-30200] [30201-30400] [30401-30600] [30601-30800] [30801-31000] [31001-31200] [31201-31400] [31401-31600] [31601-31800] [31801-32000] [32001-32200] [32201-32400] [32401-32600] [32601-32800] [32801-33000] [33001-33200] [33201-33400] [33401-33600] [33601-33800] [33801-34000] [34001-34200] [34201-34400] [34401-34600] [34601-34800] [34801-35000] [35001-35200] [35201-35400] [35401-35600] [35601-35800] [35801-36000] [36001-36200] [36201-36400] [36401-36600] [36601-36800] [36801-37000] [37001-37200] [37201-37400] [37401-37600] [37601-37800] [37801-38000] [38001-38200] [38201-38400] [38401-38600] [38601-38800] [38801-39000] [39001-39200] [39201-39400] [39401-39600] [39601-39800] [39801-40000] [40001-40200] [40201-40400] [40401-40600] [40601-40800] [40801-41000] [41001-41200] [41201-41400] [41401-41600] [41601-41800] [41801-42000] [42001-42200] [42201-42400] [42401-42600] [42601-42800] [42801-43000] [43001-43200] [43201-43400] [43401-43600] [43601-43800] [43801-44000] [44001-44200] [44201-44400] [44401-44600] [44601-44800] [44801-45000] [45001-45200] [45201-45400] [45401-45600] [45601-45800] [45801-46000] [46001-46200] [46201-46400] [46401-46600] [46601-46800] [46801-47000] [47001-47200] [47201-47400] [47401-47600] [47601-47800] [47801-48000] [48001-48200] [48201-48400] [48401-48600] [48601-48800] [48801-49000] [49001-49200] [49201-49400] [49401-49600] [49601-49800] [49801-50000] [50001-50200] [50201-50388]